sensor_id;sensor_type;location;lat;lon;timestamp;P1;durP1;ratioP1;P2;durP2;ratioP2
31906;SDS011;18455;50.858;13.662;2023-01-25T00:00:33;72.60;;;21.83;;
31906;SDS011;18455;50.858;13.662;2023-01-25T00:05:34;75.07;;;22.10;;
31906;SDS011;18455;50.858;13.662;2023-01-25T00:10:34;84.97;;;21.80;;
31906;SDS011;18455;50.858;13.662;2023-01-25T00:15:34;102.43;;;23.27;;
31906;SDS011;18455;50.858;13.662;2023-01-25T00:20:35;80.90;;;21.80;;
31906;SDS011;18455;50.858;13.662;2023-01-25T00:25:35;117.10;;;23.63;;
31906;SDS011;18455;50.858;13.662;2023-01-25T00:30:35;108.17;;;22.90;;
31906;SDS011;18455;50.858;13.662;2023-01-25T00:35:36;169.37;;;24.30;;
31906;SDS011;18455;50.858;13.662;2023-01-25T00:40:37;143.37;;;23.27;;
31906;SDS011;18455;50.858;13.662;2023-01-25T00:45:39;127.83;;;22.97;;
31906;SDS011;18455;50.858;13.662;2023-01-25T00:50:39;127.67;;;23.90;;
31906;SDS011;18455;50.858;13.662;2023-01-25T00:55:40;78.53;;;21.23;;
31906;SDS011;18455;50.858;13.662;2023-01-25T01:00:40;66.07;;;19.47;;
31906;SDS011;18455;50.858;13.662;2023-01-25T01:05:41;39.70;;;14.70;;
31906;SDS011;18455;50.858;13.662;2023-01-25T01:10:41;37.40;;;14.40;;
31906;SDS011;18455;50.858;13.662;2023-01-25T01:15:41;39.93;;;13.23;;
31906;SDS011;18455;50.858;13.662;2023-01-25T01:20:47;23.80;;;10.27;;
31906;SDS011;18455;50.858;13.662;2023-01-25T01:25:48;21.90;;;9.43;;
31906;SDS011;18455;50.858;13.662;2023-01-25T01:30:50;19.23;;;10.20;;
31906;SDS011;18455;50.858;13.662;2023-01-25T01:35:50;26.87;;;10.93;;
31906;SDS011;18455;50.858;13.662;2023-01-25T01:40:51;21.30;;;10.33;;
31906;SDS011;18455;50.858;13.662;2023-01-25T01:45:55;25.93;;;10.77;;
31906;SDS011;18455;50.858;13.662;2023-01-25T01:51:18;23.83;;;11.03;;
31906;SDS011;18455;50.858;13.662;2023-01-25T01:56:47;23.20;;;11.13;;
31906;SDS011;18455;50.858;13.662;2023-01-25T02:01:59;23.00;;;10.67;;
31906;SDS011;18455;50.858;13.662;2023-01-25T02:07:02;21.77;;;9.90;;
31906;SDS011;18455;50.858;13.662;2023-01-25T02:12:10;22.00;;;9.40;;
31906;SDS011;18455;50.858;13.662;2023-01-25T02:17:10;19.13;;;9.37;;
31906;SDS011;18455;50.858;13.662;2023-01-25T02:22:12;20.17;;;9.03;;
31906;SDS011;18455;50.858;13.662;2023-01-25T02:27:15;18.67;;;9.53;;
31906;SDS011;18455;50.858;13.662;2023-01-25T02:32:16;17.70;;;9.53;;
31906;SDS011;18455;50.858;13.662;2023-01-25T02:37:16;19.93;;;9.63;;
31906;SDS011;18455;50.858;13.662;2023-01-25T02:42:16;15.17;;;7.93;;
31906;SDS011;18455;50.858;13.662;2023-01-25T02:47:17;19.00;;;8.20;;
31906;SDS011;18455;50.858;13.662;2023-01-25T02:52:18;19.63;;;8.77;;
31906;SDS011;18455;50.858;13.662;2023-01-25T02:57:18;19.43;;;8.40;;
31906;SDS011;18455;50.858;13.662;2023-01-25T03:02:18;15.37;;;7.20;;
31906;SDS011;18455;50.858;13.662;2023-01-25T03:07:20;15.20;;;7.43;;
31906;SDS011;18455;50.858;13.662;2023-01-25T03:12:20;12.90;;;7.23;;
31906;SDS011;18455;50.858;13.662;2023-01-25T03:17:20;14.67;;;7.63;;
31906;SDS011;18455;50.858;13.662;2023-01-25T03:22:21;16.03;;;8.50;;
31906;SDS011;18455;50.858;13.662;2023-01-25T03:27:23;16.60;;;7.50;;
31906;SDS011;18455;50.858;13.662;2023-01-25T03:32:27;15.17;;;8.13;;
31906;SDS011;18455;50.858;13.662;2023-01-25T03:37:28;16.57;;;8.40;;
31906;SDS011;18455;50.858;13.662;2023-01-25T03:42:30;16.83;;;8.43;;
31906;SDS011;18455;50.858;13.662;2023-01-25T03:47:32;18.00;;;6.83;;
31906;SDS011;18455;50.858;13.662;2023-01-25T03:52:32;12.50;;;6.83;;
31906;SDS011;18455;50.858;13.662;2023-01-25T03:57:37;39.93;;;15.20;;
31906;SDS011;18455;50.858;13.662;2023-01-25T04:02:39;14.53;;;7.63;;
31906;SDS011;18455;50.858;13.662;2023-01-25T04:07:40;10.73;;;6.37;;
31906;SDS011;18455;50.858;13.662;2023-01-25T04:12:42;12.17;;;6.67;;
31906;SDS011;18455;50.858;13.662;2023-01-25T04:17:43;15.60;;;7.23;;
31906;SDS011;18455;50.858;13.662;2023-01-25T04:22:54;13.23;;;7.50;;
31906;SDS011;18455;50.858;13.662;2023-01-25T04:28:00;15.37;;;7.63;;
31906;SDS011;18455;50.858;13.662;2023-01-25T04:33:01;12.77;;;7.50;;
31906;SDS011;18455;50.858;13.662;2023-01-25T04:38:04;11.33;;;6.67;;
31906;SDS011;18455;50.858;13.662;2023-01-25T04:43:11;10.20;;;5.93;;
31906;SDS011;18455;50.858;13.662;2023-01-25T04:48:13;12.53;;;7.17;;
31906;SDS011;18455;50.858;13.662;2023-01-25T04:53:21;12.23;;;7.70;;
31906;SDS011;18455;50.858;13.662;2023-01-25T04:58:22;18.77;;;8.50;;
31906;SDS011;18455;50.858;13.662;2023-01-25T05:03:24;16.60;;;8.37;;
31906;SDS011;18455;50.858;13.662;2023-01-25T05:08:26;17.60;;;8.90;;
31906;SDS011;18455;50.858;13.662;2023-01-25T05:13:30;18.43;;;8.60;;
31906;SDS011;18455;50.858;13.662;2023-01-25T05:18:41;15.33;;;8.70;;
31906;SDS011;18455;50.858;13.662;2023-01-25T05:23:41;15.27;;;7.13;;
31906;SDS011;18455;50.858;13.662;2023-01-25T05:28:42;11.13;;;6.77;;
31906;SDS011;18455;50.858;13.662;2023-01-25T05:33:52;13.17;;;6.73;;
31906;SDS011;18455;50.858;13.662;2023-01-25T05:38:54;13.10;;;7.27;;
31906;SDS011;18455;50.858;13.662;2023-01-25T05:43:55;12.87;;;7.67;;
31906;SDS011;18455;50.858;13.662;2023-01-25T05:48:57;12.90;;;6.83;;
31906;SDS011;18455;50.858;13.662;2023-01-25T05:54:00;13.43;;;6.17;;
31906;SDS011;18455;50.858;13.662;2023-01-25T05:59:01;11.37;;;6.17;;
31906;SDS011;18455;50.858;13.662;2023-01-25T06:04:02;11.87;;;5.70;;
31906;SDS011;18455;50.858;13.662;2023-01-25T06:09:04;14.13;;;5.43;;
31906;SDS011;18455;50.858;13.662;2023-01-25T06:14:04;9.93;;;5.87;;
31906;SDS011;18455;50.858;13.662;2023-01-25T06:19:05;10.93;;;5.97;;
31906;SDS011;18455;50.858;13.662;2023-01-25T06:24:13;12.13;;;6.50;;
31906;SDS011;18455;50.858;13.662;2023-01-25T06:29:13;14.37;;;6.60;;
31906;SDS011;18455;50.858;13.662;2023-01-25T06:34:13;13.87;;;7.43;;
31906;SDS011;18455;50.858;13.662;2023-01-25T06:39:14;13.67;;;6.63;;
31906;SDS011;18455;50.858;13.662;2023-01-25T06:44:14;11.27;;;6.63;;
31906;SDS011;18455;50.858;13.662;2023-01-25T06:49:14;15.27;;;7.63;;
31906;SDS011;18455;50.858;13.662;2023-01-25T06:54:15;14.93;;;8.20;;
31906;SDS011;18455;50.858;13.662;2023-01-25T06:59:15;24.73;;;13.63;;
31906;SDS011;18455;50.858;13.662;2023-01-25T07:04:15;20.23;;;13.00;;
31906;SDS011;18455;50.858;13.662;2023-01-25T07:09:16;12.87;;;7.90;;
31906;SDS011;18455;50.858;13.662;2023-01-25T07:14:22;13.23;;;6.87;;
31906;SDS011;18455;50.858;13.662;2023-01-25T07:19:22;10.90;;;6.47;;
31906;SDS011;18455;50.858;13.662;2023-01-25T07:24:23;18.37;;;8.87;;
31906;SDS011;18455;50.858;13.662;2023-01-25T07:29:26;13.63;;;7.57;;
31906;SDS011;18455;50.858;13.662;2023-01-25T07:34:26;15.73;;;7.27;;
31906;SDS011;18455;50.858;13.662;2023-01-25T07:39:27;14.53;;;8.70;;
31906;SDS011;18455;50.858;13.662;2023-01-25T07:44:28;12.47;;;8.43;;
31906;SDS011;18455;50.858;13.662;2023-01-25T07:49:40;10.60;;;6.97;;
31906;SDS011;18455;50.858;13.662;2023-01-25T07:54:41;13.67;;;7.80;;
31906;SDS011;18455;50.858;13.662;2023-01-25T07:59:41;15.47;;;9.03;;
31906;SDS011;18455;50.858;13.662;2023-01-25T08:04:42;16.53;;;9.17;;
31906;SDS011;18455;50.858;13.662;2023-01-25T08:09:43;18.90;;;8.83;;
31906;SDS011;18455;50.858;13.662;2023-01-25T08:14:43;16.43;;;8.80;;
31906;SDS011;18455;50.858;13.662;2023-01-25T08:19:44;14.97;;;8.90;;
31906;SDS011;18455;50.858;13.662;2023-01-25T08:24:44;17.97;;;8.47;;
31906;SDS011;18455;50.858;13.662;2023-01-25T08:29:45;14.07;;;7.47;;
31906;SDS011;18455;50.858;13.662;2023-01-25T08:34:46;16.60;;;8.00;;
31906;SDS011;18455;50.858;13.662;2023-01-25T08:39:46;13.63;;;7.90;;
31906;SDS011;18455;50.858;13.662;2023-01-25T08:44:47;15.67;;;8.20;;
31906;SDS011;18455;50.858;13.662;2023-01-25T08:49:47;16.53;;;9.03;;
31906;SDS011;18455;50.858;13.662;2023-01-25T08:54:47;15.87;;;9.43;;
31906;SDS011;18455;50.858;13.662;2023-01-25T08:59:48;19.63;;;9.80;;
31906;SDS011;18455;50.858;13.662;2023-01-25T09:04:48;15.27;;;8.80;;
31906;SDS011;18455;50.858;13.662;2023-01-25T09:09:48;17.10;;;8.70;;
31906;SDS011;18455;50.858;13.662;2023-01-25T09:14:49;16.37;;;9.87;;
31906;SDS011;18455;50.858;13.662;2023-01-25T09:19:49;15.83;;;7.93;;
31906;SDS011;18455;50.858;13.662;2023-01-25T09:24:50;17.07;;;8.50;;
31906;SDS011;18455;50.858;13.662;2023-01-25T09:29:52;15.33;;;8.43;;
31906;SDS011;18455;50.858;13.662;2023-01-25T09:34:54;17.13;;;8.60;;
31906;SDS011;18455;50.858;13.662;2023-01-25T09:39:54;20.20;;;11.03;;
31906;SDS011;18455;50.858;13.662;2023-01-25T09:50:22;21.53;;;11.63;;
31906;SDS011;18455;50.858;13.662;2023-01-25T09:55:25;15.73;;;9.23;;
31906;SDS011;18455;50.858;13.662;2023-01-25T10:00:30;17.50;;;9.23;;
31906;SDS011;18455;50.858;13.662;2023-01-25T10:05:42;52.80;;;26.00;;
31906;SDS011;18455;50.858;13.662;2023-01-25T10:10:44;23.50;;;13.57;;
31906;SDS011;18455;50.858;13.662;2023-01-25T10:15:46;15.93;;;10.70;;
31906;SDS011;18455;50.858;13.662;2023-01-25T10:20:54;14.93;;;8.77;;
31906;SDS011;18455;50.858;13.662;2023-01-25T10:25:58;17.73;;;9.27;;
31906;SDS011;18455;50.858;13.662;2023-01-25T10:31:04;15.67;;;8.30;;
31906;SDS011;18455;50.858;13.662;2023-01-25T10:36:08;18.77;;;10.73;;
31906;SDS011;18455;50.858;13.662;2023-01-25T10:41:16;28.70;;;12.37;;
31906;SDS011;18455;50.858;13.662;2023-01-25T10:46:22;17.93;;;10.00;;
31906;SDS011;18455;50.858;13.662;2023-01-25T10:51:29;18.03;;;10.17;;
31906;SDS011;18455;50.858;13.662;2023-01-25T10:56:32;22.60;;;11.53;;
31906;SDS011;18455;50.858;13.662;2023-01-25T11:01:34;19.30;;;10.03;;
31906;SDS011;18455;50.858;13.662;2023-01-25T11:06:39;20.97;;;10.73;;
31906;SDS011;18455;50.858;13.662;2023-01-25T11:11:54;19.80;;;10.57;;
31906;SDS011;18455;50.858;13.662;2023-01-25T11:16:55;16.40;;;10.20;;
31906;SDS011;18455;50.858;13.662;2023-01-25T11:21:58;20.47;;;10.77;;
31906;SDS011;18455;50.858;13.662;2023-01-25T11:27:16;15.93;;;9.33;;
31906;SDS011;18455;50.858;13.662;2023-01-25T11:32:20;16.70;;;10.03;;
31906;SDS011;18455;50.858;13.662;2023-01-25T11:43:01;15.97;;;9.87;;
31906;SDS011;18455;50.858;13.662;2023-01-25T11:53:28;15.80;;;9.60;;
31906;SDS011;18455;50.858;13.662;2023-01-25T12:03:54;18.93;;;10.17;;
31906;SDS011;18455;50.858;13.662;2023-01-25T12:20:43;17.33;;;10.00;;
31906;SDS011;18455;50.858;13.662;2023-01-25T12:25:45;19.17;;;10.97;;
31906;SDS011;18455;50.858;13.662;2023-01-25T12:31:04;18.17;;;10.03;;
31906;SDS011;18455;50.858;13.662;2023-01-25T12:36:26;18.77;;;9.90;;
31906;SDS011;18455;50.858;13.662;2023-01-25T12:41:32;17.57;;;9.87;;
31906;SDS011;18455;50.858;13.662;2023-01-25T12:46:54;25.23;;;11.93;;
31906;SDS011;18455;50.858;13.662;2023-01-25T12:51:59;22.57;;;12.23;;
31906;SDS011;18455;50.858;13.662;2023-01-25T12:57:04;23.57;;;12.23;;
31906;SDS011;18455;50.858;13.662;2023-01-25T13:02:34;20.17;;;11.60;;
31906;SDS011;18455;50.858;13.662;2023-01-25T13:07:54;22.87;;;12.27;;
31906;SDS011;18455;50.858;13.662;2023-01-25T13:12:59;23.10;;;12.73;;
31906;SDS011;18455;50.858;13.662;2023-01-25T13:23:37;25.10;;;13.50;;
31906;SDS011;18455;50.858;13.662;2023-01-25T13:28:43;26.80;;;14.47;;
31906;SDS011;18455;50.858;13.662;2023-01-25T13:33:45;33.10;;;13.93;;
31906;SDS011;18455;50.858;13.662;2023-01-25T13:38:46;35.03;;;16.13;;
31906;SDS011;18455;50.858;13.662;2023-01-25T13:43:47;32.90;;;16.50;;
31906;SDS011;18455;50.858;13.662;2023-01-25T13:48:51;34.63;;;17.53;;
31906;SDS011;18455;50.858;13.662;2023-01-25T13:53:55;34.27;;;16.67;;
31906;SDS011;18455;50.858;13.662;2023-01-25T13:58:57;36.93;;;16.77;;
31906;SDS011;18455;50.858;13.662;2023-01-25T14:03:58;37.60;;;17.33;;
31906;SDS011;18455;50.858;13.662;2023-01-25T14:09:02;36.90;;;16.43;;
31906;SDS011;18455;50.858;13.662;2023-01-25T14:19:26;37.33;;;14.77;;
31906;SDS011;18455;50.858;13.662;2023-01-25T14:24:30;34.03;;;15.23;;
31906;SDS011;18455;50.858;13.662;2023-01-25T14:29:31;38.60;;;15.77;;
31906;SDS011;18455;50.858;13.662;2023-01-25T14:34:33;36.20;;;16.13;;
31906;SDS011;18455;50.858;13.662;2023-01-25T14:39:33;45.30;;;17.33;;
31906;SDS011;18455;50.858;13.662;2023-01-25T14:44:33;37.50;;;16.63;;
31906;SDS011;18455;50.858;13.662;2023-01-25T14:49:34;41.63;;;18.23;;
31906;SDS011;18455;50.858;13.662;2023-01-25T14:54:35;39.33;;;16.90;;
31906;SDS011;18455;50.858;13.662;2023-01-25T14:59:41;35.70;;;15.50;;
31906;SDS011;18455;50.858;13.662;2023-01-25T15:04:51;36.40;;;17.97;;
31906;SDS011;18455;50.858;13.662;2023-01-25T15:10:00;40.67;;;18.73;;
31906;SDS011;18455;50.858;13.662;2023-01-25T15:15:15;36.97;;;17.93;;
31906;SDS011;18455;50.858;13.662;2023-01-25T15:20:30;39.20;;;18.43;;
31906;SDS011;18455;50.858;13.662;2023-01-25T15:25:46;37.87;;;18.33;;
31906;SDS011;18455;50.858;13.662;2023-01-25T15:30:49;39.60;;;18.57;;
31906;SDS011;18455;50.858;13.662;2023-01-25T15:35:50;40.13;;;18.77;;
31906;SDS011;18455;50.858;13.662;2023-01-25T15:40:51;34.57;;;16.23;;
31906;SDS011;18455;50.858;13.662;2023-01-25T15:45:52;33.17;;;16.83;;
31906;SDS011;18455;50.858;13.662;2023-01-25T15:50:55;33.00;;;16.77;;
31906;SDS011;18455;50.858;13.662;2023-01-25T15:55:57;43.53;;;17.63;;
31906;SDS011;18455;50.858;13.662;2023-01-25T16:00:59;46.23;;;20.47;;
31906;SDS011;18455;50.858;13.662;2023-01-25T16:06:20;48.07;;;21.73;;
31906;SDS011;18455;50.858;13.662;2023-01-25T16:11:25;51.57;;;22.93;;
31906;SDS011;18455;50.858;13.662;2023-01-25T16:16:25;66.40;;;26.13;;
31906;SDS011;18455;50.858;13.662;2023-01-25T16:21:26;55.37;;;22.57;;
31906;SDS011;18455;50.858;13.662;2023-01-25T16:26:26;61.67;;;29.03;;
31906;SDS011;18455;50.858;13.662;2023-01-25T16:31:28;66.13;;;23.67;;
31906;SDS011;18455;50.858;13.662;2023-01-25T16:36:28;71.03;;;25.23;;
31906;SDS011;18455;50.858;13.662;2023-01-25T16:41:31;70.60;;;22.63;;
31906;SDS011;18455;50.858;13.662;2023-01-25T16:46:31;58.37;;;21.63;;
31906;SDS011;18455;50.858;13.662;2023-01-25T16:51:32;92.30;;;24.20;;
31906;SDS011;18455;50.858;13.662;2023-01-25T16:56:32;68.17;;;24.63;;
31906;SDS011;18455;50.858;13.662;2023-01-25T17:01:33;86.87;;;27.83;;
31906;SDS011;18455;50.858;13.662;2023-01-25T17:06:35;78.80;;;26.83;;
31906;SDS011;18455;50.858;13.662;2023-01-25T17:11:36;90.90;;;30.33;;
31906;SDS011;18455;50.858;13.662;2023-01-25T17:16:37;78.47;;;26.37;;
31906;SDS011;18455;50.858;13.662;2023-01-25T17:21:37;78.30;;;25.50;;
31906;SDS011;18455;50.858;13.662;2023-01-25T17:26:38;66.83;;;23.60;;
31906;SDS011;18455;50.858;13.662;2023-01-25T17:31:39;74.50;;;25.20;;
31906;SDS011;18455;50.858;13.662;2023-01-25T17:36:41;60.73;;;23.67;;
31906;SDS011;18455;50.858;13.662;2023-01-25T17:41:43;44.43;;;23.27;;
31906;SDS011;18455;50.858;13.662;2023-01-25T17:46:47;44.50;;;21.37;;
31906;SDS011;18455;50.858;13.662;2023-01-25T17:51:47;45.70;;;21.33;;
31906;SDS011;18455;50.858;13.662;2023-01-25T17:56:48;40.27;;;20.73;;
31906;SDS011;18455;50.858;13.662;2023-01-25T18:01:48;45.77;;;22.90;;
31906;SDS011;18455;50.858;13.662;2023-01-25T18:06:49;39.13;;;21.17;;
31906;SDS011;18455;50.858;13.662;2023-01-25T18:11:49;39.27;;;21.57;;
31906;SDS011;18455;50.858;13.662;2023-01-25T18:16:50;47.93;;;24.70;;
31906;SDS011;18455;50.858;13.662;2023-01-25T18:21:50;89.07;;;41.43;;
31906;SDS011;18455;50.858;13.662;2023-01-25T18:26:50;77.80;;;31.57;;
31906;SDS011;18455;50.858;13.662;2023-01-25T18:31:53;76.40;;;29.03;;
31906;SDS011;18455;50.858;13.662;2023-01-25T18:36:54;61.27;;;25.63;;
31906;SDS011;18455;50.858;13.662;2023-01-25T18:41:58;47.73;;;22.33;;
31906;SDS011;18455;50.858;13.662;2023-01-25T18:46:58;45.17;;;21.30;;
31906;SDS011;18455;50.858;13.662;2023-01-25T18:51:58;40.80;;;20.00;;
31906;SDS011;18455;50.858;13.662;2023-01-25T18:56:59;37.10;;;19.37;;
31906;SDS011;18455;50.858;13.662;2023-01-25T19:01:59;51.20;;;23.10;;
31906;SDS011;18455;50.858;13.662;2023-01-25T19:07:00;70.17;;;26.80;;
31906;SDS011;18455;50.858;13.662;2023-01-25T19:12:00;70.10;;;27.87;;
31906;SDS011;18455;50.858;13.662;2023-01-25T19:17:00;68.77;;;26.73;;
31906;SDS011;18455;50.858;13.662;2023-01-25T19:22:01;80.50;;;28.53;;
31906;SDS011;18455;50.858;13.662;2023-01-25T19:27:01;93.53;;;28.83;;
31906;SDS011;18455;50.858;13.662;2023-01-25T19:32:02;89.80;;;27.70;;
31906;SDS011;18455;50.858;13.662;2023-01-25T19:37:02;90.33;;;29.33;;
31906;SDS011;18455;50.858;13.662;2023-01-25T19:42:03;79.37;;;27.70;;
31906;SDS011;18455;50.858;13.662;2023-01-25T19:47:05;76.20;;;26.73;;
31906;SDS011;18455;50.858;13.662;2023-01-25T19:52:06;87.43;;;29.80;;
31906;SDS011;18455;50.858;13.662;2023-01-25T19:57:06;77.73;;;25.90;;
31906;SDS011;18455;50.858;13.662;2023-01-25T20:02:08;77.10;;;25.73;;
31906;SDS011;18455;50.858;13.662;2023-01-25T20:07:10;88.27;;;29.53;;
31906;SDS011;18455;50.858;13.662;2023-01-25T20:12:10;97.53;;;29.77;;
31906;SDS011;18455;50.858;13.662;2023-01-25T20:17:11;81.07;;;26.30;;
31906;SDS011;18455;50.858;13.662;2023-01-25T20:22:11;79.03;;;27.33;;
31906;SDS011;18455;50.858;13.662;2023-01-25T20:27:12;82.03;;;29.70;;
31906;SDS011;18455;50.858;13.662;2023-01-25T20:32:13;81.77;;;27.13;;
31906;SDS011;18455;50.858;13.662;2023-01-25T20:37:13;72.93;;;26.23;;
31906;SDS011;18455;50.858;13.662;2023-01-25T20:42:13;52.23;;;21.63;;
31906;SDS011;18455;50.858;13.662;2023-01-25T20:47:14;53.80;;;21.93;;
31906;SDS011;18455;50.858;13.662;2023-01-25T20:52:14;70.93;;;25.97;;
31906;SDS011;18455;50.858;13.662;2023-01-25T20:57:14;53.60;;;23.80;;
31906;SDS011;18455;50.858;13.662;2023-01-25T21:02:15;54.43;;;23.03;;
31906;SDS011;18455;50.858;13.662;2023-01-25T21:07:15;52.70;;;22.53;;
31906;SDS011;18455;50.858;13.662;2023-01-25T21:12:15;45.73;;;20.70;;
31906;SDS011;18455;50.858;13.662;2023-01-25T21:17:16;40.37;;;19.77;;
31906;SDS011;18455;50.858;13.662;2023-01-25T21:22:16;36.83;;;18.70;;
31906;SDS011;18455;50.858;13.662;2023-01-25T21:27:17;35.50;;;17.60;;
31906;SDS011;18455;50.858;13.662;2023-01-25T21:32:17;38.00;;;19.57;;
31906;SDS011;18455;50.858;13.662;2023-01-25T21:37:17;35.90;;;18.43;;
31906;SDS011;18455;50.858;13.662;2023-01-25T21:42:18;35.70;;;17.57;;
31906;SDS011;18455;50.858;13.662;2023-01-25T21:47:18;31.57;;;15.77;;
31906;SDS011;18455;50.858;13.662;2023-01-25T21:52:19;29.30;;;15.33;;
31906;SDS011;18455;50.858;13.662;2023-01-25T21:57:19;32.20;;;16.53;;
31906;SDS011;18455;50.858;13.662;2023-01-25T22:02:19;34.70;;;16.67;;
31906;SDS011;18455;50.858;13.662;2023-01-25T22:07:20;35.83;;;16.00;;
31906;SDS011;18455;50.858;13.662;2023-01-25T22:12:20;33.40;;;16.07;;
31906;SDS011;18455;50.858;13.662;2023-01-25T22:17:20;33.20;;;17.17;;
31906;SDS011;18455;50.858;13.662;2023-01-25T22:22:21;35.53;;;16.90;;
31906;SDS011;18455;50.858;13.662;2023-01-25T22:27:25;33.13;;;16.23;;
31906;SDS011;18455;50.858;13.662;2023-01-25T22:32:26;33.37;;;16.93;;
31906;SDS011;18455;50.858;13.662;2023-01-25T22:37:26;38.33;;;18.80;;
31906;SDS011;18455;50.858;13.662;2023-01-25T22:42:27;43.37;;;18.63;;
31906;SDS011;18455;50.858;13.662;2023-01-25T22:47:27;39.47;;;18.87;;
31906;SDS011;18455;50.858;13.662;2023-01-25T22:52:27;39.03;;;19.30;;
31906;SDS011;18455;50.858;13.662;2023-01-25T22:57:28;37.97;;;18.83;;
31906;SDS011;18455;50.858;13.662;2023-01-25T23:02:28;29.97;;;16.20;;
31906;SDS011;18455;50.858;13.662;2023-01-25T23:07:28;36.10;;;18.67;;
31906;SDS011;18455;50.858;13.662;2023-01-25T23:12:29;39.10;;;19.50;;
31906;SDS011;18455;50.858;13.662;2023-01-25T23:17:29;41.13;;;19.50;;
31906;SDS011;18455;50.858;13.662;2023-01-25T23:22:49;42.20;;;20.57;;
31906;SDS011;18455;50.858;13.662;2023-01-25T23:27:49;46.10;;;22.70;;
31906;SDS011;18455;50.858;13.662;2023-01-25T23:32:50;50.47;;;21.13;;
31906;SDS011;18455;50.858;13.662;2023-01-25T23:37:50;44.07;;;21.27;;
31906;SDS011;18455;50.858;13.662;2023-01-25T23:42:50;43.03;;;21.13;;
31906;SDS011;18455;50.858;13.662;2023-01-25T23:47:51;43.40;;;20.53;;
31906;SDS011;18455;50.858;13.662;2023-01-25T23:52:51;42.17;;;21.17;;
31906;SDS011;18455;50.858;13.662;2023-01-25T23:57:52;35.67;;;18.23;;
